createdAt,value
2023-05-10T00:02:25.000Z,14.33
2023-05-10T00:07:26.000Z,14.91
2023-05-10T00:12:25.000Z,14.47
2023-05-10T00:17:26.000Z,15.15
2023-05-10T00:22:25.000Z,16.22
2023-05-10T00:27:26.000Z,15.28
2023-05-10T00:32:25.000Z,15.53
2023-05-10T00:37:25.000Z,16.42
2023-05-10T00:42:26.000Z,16.93
2023-05-10T00:47:25.000Z,19.64
2023-05-10T00:52:25.000Z,19.33
2023-05-10T00:57:25.000Z,19.22
2023-05-10T01:02:25.000Z,20.08
2023-05-10T01:07:25.000Z,19.27
2023-05-10T01:12:26.000Z,18.54
2023-05-10T01:17:25.000Z,19.11
2023-05-10T01:22:26.000Z,18.23
2023-05-10T01:27:26.000Z,18.03
2023-05-10T01:32:25.000Z,18.72
2023-05-10T01:37:25.000Z,19.16
2023-05-10T01:42:25.000Z,19.35
2023-05-10T01:47:26.000Z,18.55
2023-05-10T01:52:25.000Z,17.32
2023-05-10T01:57:25.000Z,16.98
2023-05-10T02:02:25.000Z,16.49
2023-05-10T02:07:26.000Z,16.14
2023-05-10T02:12:25.000Z,16.28
2023-05-10T02:17:25.000Z,16.21
2023-05-10T02:22:26.000Z,16.62
2023-05-10T02:27:26.000Z,16.62
2023-05-10T02:32:25.000Z,16.63
2023-05-10T02:37:25.000Z,16.85
2023-05-10T02:42:26.000Z,16.54
2023-05-10T02:47:25.000Z,16.81
2023-05-10T02:52:26.000Z,16.85
2023-05-10T02:57:25.000Z,16.28
2023-05-10T03:02:26.000Z,16.3
2023-05-10T03:07:25.000Z,16.73
2023-05-10T03:12:25.000Z,17.08
2023-05-10T03:17:25.000Z,16.9
2023-05-10T03:22:25.000Z,16.23
2023-05-10T03:27:25.000Z,15.71
2023-05-10T03:32:26.000Z,15.66
2023-05-10T03:37:26.000Z,15.34
2023-05-10T03:42:25.000Z,15.97
2023-05-10T03:47:25.000Z,16.05
2023-05-10T03:52:26.000Z,16.65
2023-05-10T03:57:26.000Z,16.86
2023-05-10T04:02:25.000Z,16.22
2023-05-10T04:07:25.000Z,16
2023-05-10T04:12:25.000Z,15.89
2023-05-10T04:17:25.000Z,15.65
2023-05-10T04:22:25.000Z,15.68
2023-05-10T04:27:25.000Z,15.38
2023-05-10T04:32:25.000Z,15.11
2023-05-10T04:37:25.000Z,14.59
2023-05-10T04:42:25.000Z,14.35
2023-05-10T04:47:25.000Z,13.39
2023-05-10T04:52:25.000Z,12.94
2023-05-10T04:57:25.000Z,12.75
2023-05-10T05:02:25.000Z,12.46
2023-05-10T05:07:25.000Z,12.35
2023-05-10T05:12:26.000Z,12.28
2023-05-10T05:17:25.000Z,11.84
2023-05-10T05:22:25.000Z,11.15
2023-05-10T05:27:25.000Z,10.73
2023-05-10T05:32:25.000Z,9.37
2023-05-10T05:37:25.000Z,8.04
2023-05-10T05:42:26.000Z,8.25
2023-05-10T05:47:25.000Z,7.83
2023-05-10T05:52:25.000Z,6.61
2023-05-10T05:57:25.000Z,5.35
2023-05-10T06:02:25.000Z,5.82
2023-05-10T06:07:25.000Z,5.64
2023-05-10T06:12:26.000Z,5
2023-05-10T06:17:25.000Z,5.07
2023-05-10T06:22:26.000Z,4.74
2023-05-10T06:27:26.000Z,4.56
2023-05-10T06:32:26.000Z,4.49
2023-05-10T06:37:25.000Z,4.46
2023-05-10T06:42:26.000Z,4.22
2023-05-10T06:47:26.000Z,4.1
2023-05-10T06:52:25.000Z,3.73
2023-05-10T06:57:25.000Z,3.56
2023-05-10T07:02:26.000Z,3.14
2023-05-10T07:07:26.000Z,3.37
2023-05-10T07:12:26.000Z,3.64
2023-05-10T07:17:25.000Z,3.1
2023-05-10T07:22:25.000Z,3.38
2023-05-10T07:27:25.000Z,3.27
2023-05-10T07:32:25.000Z,3.01
2023-05-10T07:37:25.000Z,2.91
2023-05-10T07:42:25.000Z,2.81
2023-05-10T07:47:25.000Z,2.83
2023-05-10T07:52:25.000Z,2.76
2023-05-10T07:57:25.000Z,2.89
2023-05-10T08:02:26.000Z,2.57
2023-05-10T08:07:25.000Z,2.59
2023-05-10T08:12:25.000Z,2.57
2023-05-10T08:17:26.000Z,2.57
2023-05-10T08:22:25.000Z,2.51
2023-05-10T08:27:26.000Z,2.48
2023-05-10T08:32:25.000Z,2.62
2023-05-10T08:37:25.000Z,2.54
2023-05-10T08:42:26.000Z,2.43
2023-05-10T08:47:25.000Z,2.44
2023-05-10T08:52:25.000Z,2.59
2023-05-10T08:57:26.000Z,2.8
2023-05-10T09:02:26.000Z,2.61
2023-05-10T09:07:25.000Z,2.68
2023-05-10T09:12:25.000Z,2.72
2023-05-10T09:17:26.000Z,2.73
2023-05-10T09:22:26.000Z,2.43
2023-05-10T09:27:26.000Z,2.54
2023-05-10T09:32:26.000Z,2.62
2023-05-10T09:37:25.000Z,2.55
2023-05-10T09:42:26.000Z,2.67
2023-05-10T09:47:26.000Z,2.64
2023-05-10T09:52:25.000Z,2.8
2023-05-10T09:57:26.000Z,2.89
2023-05-10T10:02:25.000Z,2.7
2023-05-10T10:07:25.000Z,2.72
2023-05-10T10:12:25.000Z,2.72
2023-05-10T10:17:25.000Z,2.96
2023-05-10T10:22:26.000Z,2.87
2023-05-10T10:27:25.000Z,2.72
2023-05-10T10:32:25.000Z,2.77
2023-05-10T10:37:26.000Z,2.9
2023-05-10T10:42:25.000Z,2.82
2023-05-10T10:47:25.000Z,2.92
2023-05-10T10:52:26.000Z,2.9
2023-05-10T10:57:26.000Z,2.73
2023-05-10T11:02:25.000Z,2.8
2023-05-10T11:07:25.000Z,2.75
2023-05-10T11:12:26.000Z,2.78
2023-05-10T11:17:25.000Z,2.85
2023-05-10T11:22:26.000Z,3.09
2023-05-10T11:27:25.000Z,2.97
2023-05-10T11:32:25.000Z,2.91
2023-05-10T11:37:25.000Z,3.02
2023-05-10T11:42:25.000Z,2.92
2023-05-10T11:47:25.000Z,3.17
2023-05-10T11:52:25.000Z,2.88
2023-05-10T11:57:25.000Z,2.93
2023-05-10T12:02:25.000Z,3.1
2023-05-10T12:07:26.000Z,3.05
2023-05-10T12:12:26.000Z,2.94
2023-05-10T12:17:26.000Z,3.07
2023-05-10T12:22:26.000Z,2.99
2023-05-10T12:27:25.000Z,3.18
2023-05-10T12:32:25.000Z,3.2
2023-05-10T12:37:25.000Z,3.55
2023-05-10T12:42:26.000Z,3.17
2023-05-10T12:47:26.000Z,3.11
2023-05-10T12:52:25.000Z,3.12
2023-05-10T12:57:25.000Z,3.58
2023-05-10T13:02:26.000Z,3.5
2023-05-10T13:07:26.000Z,3.18
2023-05-10T13:12:25.000Z,3.25
2023-05-10T13:17:25.000Z,3.55
2023-05-10T13:22:25.000Z,3.14
2023-05-10T13:27:25.000Z,3.02
2023-05-10T13:32:25.000Z,3.47
2023-05-10T13:37:25.000Z,3.76
2023-05-10T13:42:25.000Z,5.05
2023-05-10T13:47:25.000Z,3.05
2023-05-10T13:52:25.000Z,4.12
2023-05-10T13:57:25.000Z,3.33
2023-05-10T14:02:25.000Z,3.56
2023-05-10T14:07:26.000Z,3.26
2023-05-10T14:12:25.000Z,3.53
2023-05-10T14:17:26.000Z,3.69
2023-05-10T14:22:25.000Z,3.83
2023-05-10T14:27:25.000Z,4.11
2023-05-10T14:32:25.000Z,3.55
2023-05-10T14:37:26.000Z,3.83
2023-05-10T14:42:25.000Z,3.35
2023-05-10T14:47:26.000Z,3.4
2023-05-10T14:52:25.000Z,3.44
2023-05-10T14:57:25.000Z,3.51
2023-05-10T15:02:25.000Z,3.45
2023-05-10T15:07:25.000Z,7.29
2023-05-10T15:12:26.000Z,3.67
2023-05-10T15:17:26.000Z,3.4
2023-05-10T15:22:26.000Z,5.64
2023-05-10T15:27:26.000Z,8.62
2023-05-10T15:32:25.000Z,6.36
2023-05-10T15:37:26.000Z,5.58
2023-05-10T15:42:25.000Z,6.55
2023-05-10T15:47:25.000Z,7.5
2023-05-10T15:52:25.000Z,6.11
2023-05-10T15:57:26.000Z,4.72
2023-05-10T16:02:25.000Z,5.22
2023-05-10T16:07:25.000Z,5.23
2023-05-10T16:12:25.000Z,4.67
2023-05-10T16:17:26.000Z,5.05
2023-05-10T16:22:25.000Z,5.05
2023-05-10T16:27:25.000Z,4.83
2023-05-10T16:32:26.000Z,4.83
2023-05-10T16:37:25.000Z,4.93
2023-05-10T16:42:25.000Z,5.14
2023-05-10T16:47:26.000Z,6.63
2023-05-10T16:52:25.000Z,5.12
2023-05-10T16:57:25.000Z,5.63
2023-05-10T17:02:25.000Z,5.36
2023-05-10T17:07:26.000Z,5.62
2023-05-10T17:12:25.000Z,6.3
2023-05-10T17:17:26.000Z,11.59
2023-05-10T17:22:26.000Z,11.37
2023-05-10T17:27:26.000Z,10.26
2023-05-10T17:32:25.000Z,9.85
2023-05-10T17:37:25.000Z,8.74
2023-05-10T17:42:25.000Z,8.64
2023-05-10T17:47:26.000Z,8.93
2023-05-10T17:52:25.000Z,8.74
2023-05-10T17:57:25.000Z,8.31
2023-05-10T18:02:25.000Z,8.05
2023-05-10T18:07:25.000Z,7.95
2023-05-10T18:12:25.000Z,8.37
2023-05-10T18:17:25.000Z,8.59
2023-05-10T18:22:25.000Z,9.51
2023-05-10T18:27:25.000Z,9.38
2023-05-10T18:32:25.000Z,11.88
2023-05-10T18:37:25.000Z,10.76
2023-05-10T18:42:25.000Z,11.03
2023-05-10T18:47:25.000Z,11.53
2023-05-10T18:52:25.000Z,11.67
2023-05-10T18:57:25.000Z,11.65
2023-05-10T19:02:25.000Z,14.23
2023-05-10T19:07:25.000Z,15.38
2023-05-10T19:12:25.000Z,15.29
2023-05-10T19:17:26.000Z,16.56
2023-05-10T19:22:25.000Z,15.78
2023-05-10T19:27:25.000Z,16.05
2023-05-10T19:32:25.000Z,15.98
2023-05-10T19:37:26.000Z,15.43
2023-05-10T19:42:25.000Z,16.12
2023-05-10T19:47:24.000Z,16
2023-05-10T19:52:25.000Z,15.39
2023-05-10T19:57:25.000Z,14.17
2023-05-10T20:02:25.000Z,13.25
2023-05-10T20:07:26.000Z,13.06
2023-05-10T20:12:25.000Z,12.99
2023-05-10T20:17:26.000Z,13.32
2023-05-10T20:22:25.000Z,12.09
2023-05-10T20:27:26.000Z,12.03
2023-05-10T20:32:26.000Z,13.92
2023-05-10T20:37:25.000Z,12.2
2023-05-10T20:42:26.000Z,11.45
2023-05-10T20:47:25.000Z,11
2023-05-10T20:52:25.000Z,11.07
2023-05-10T20:57:25.000Z,10.45
2023-05-10T21:02:25.000Z,10.41
2023-05-10T21:07:25.000Z,10.71
2023-05-10T21:12:25.000Z,11.22
2023-05-10T21:17:26.000Z,11.04
2023-05-10T21:22:25.000Z,11.19
2023-05-10T21:27:25.000Z,11.29
2023-05-10T21:32:25.000Z,10.7
2023-05-10T21:37:26.000Z,10.68
2023-05-10T21:42:26.000Z,10.76
2023-05-10T21:47:25.000Z,11.36
2023-05-10T21:52:25.000Z,12.83
2023-05-10T21:57:26.000Z,12.21
2023-05-10T22:02:25.000Z,11.39
2023-05-10T22:07:25.000Z,11.1
2023-05-10T22:12:25.000Z,10.81
2023-05-10T22:17:25.000Z,10.65
2023-05-10T22:22:25.000Z,10.85
2023-05-10T22:27:25.000Z,10.84
2023-05-10T22:32:26.000Z,10.67
2023-05-10T22:37:26.000Z,10.74
2023-05-10T22:42:25.000Z,10.68
2023-05-10T22:47:25.000Z,10.97
2023-05-10T22:52:25.000Z,10.65
2023-05-10T22:57:25.000Z,11.01
2023-05-10T23:02:25.000Z,11.51
2023-05-10T23:07:25.000Z,12.61
2023-05-10T23:12:25.000Z,12.94
2023-05-10T23:17:26.000Z,13.1
2023-05-10T23:22:26.000Z,12.7
2023-05-10T23:27:25.000Z,12.88
2023-05-10T23:32:26.000Z,13.21
2023-05-10T23:37:25.000Z,13.38
2023-05-10T23:42:25.000Z,12.35
2023-05-10T23:47:25.000Z,12.15
2023-05-10T23:52:25.000Z,11.43
2023-05-10T23:57:25.000Z,10.79
